Time;durP1;ratioP1;P1;durP2;ratioP2;P2;SDS_P1;SDS_P2;PMS_P1;PMS_P2;Temp;Humidity;BMP_temperature;BMP_pressure;BME280_temperature;BME280_humidity;BME280_pressure;Samples;Min_cycle;Max_cycle;Signal;HPM_P1;HPM_P2
2022/05/16 00:00:09;;;;;;;1999.90;999.90;;;18.80;99.90;;;;;;4991369;28;20383;-68
2022/05/16 00:02:35;;;;;;;1999.90;999.90;;;18.80;99.90;;;;;;4991335;28;20417;-68
2022/05/16 00:05:00;;;;;;;1999.90;999.90;;;18.80;99.90;;;;;;4991121;28;20439;-68
2022/05/16 00:07:26;;;;;;;1999.90;999.90;;;18.80;99.90;;;;;;4991342;28;20227;-68
2022/05/16 00:09:51;;;;;;;1999.90;999.90;;;18.80;99.90;;;;;;4991417;28;20581;-68
2022/05/16 00:12:17;;;;;;;1999.90;999.90;;;18.80;99.90;;;;;;4991205;28;20174;-68
2022/05/16 00:14:45;;;;;;;1999.90;999.90;;;18.80;99.90;;;;;;4991078;28;20525;-68
2022/05/16 00:17:12;;;;;;;1999.90;999.90;;;18.80;99.90;;;;;;4991105;28;20213;-68
2022/05/16 00:19:39;;;;;;;1999.90;999.90;;;18.80;99.90;;;;;;4991243;28;20795;-68
2022/05/16 00:22:05;;;;;;;1999.90;999.90;;;18.70;99.90;;;;;;4991362;28;20417;-68
2022/05/16 00:24:31;;;;;;;1999.90;999.90;;;18.60;99.90;;;;;;4990952;28;20942;-68
2022/05/16 00:26:58;;;;;;;1999.90;999.90;;;18.60;99.90;;;;;;4990935;28;20493;-68
2022/05/16 00:29:24;;;;;;;1999.90;999.90;;;18.50;99.90;;;;;;4990981;28;20441;-68
2022/05/16 00:31:50;;;;;;;1999.90;999.90;;;18.40;99.90;;;;;;4991048;28;20409;-68
2022/05/16 00:34:16;;;;;;;1999.90;999.90;;;18.40;99.90;;;;;;4990666;28;20777;-68
2022/05/16 00:36:47;;;;;;;1999.90;999.90;;;18.40;99.90;;;;;;4990776;28;20203;-68
2022/05/16 00:39:16;;;;;;;1999.90;999.90;;;18.20;99.90;;;;;;4991043;28;20410;-68
2022/05/16 00:41:43;;;;;;;1999.90;999.90;;;18.20;99.90;;;;;;4990688;28;20421;-68
2022/05/16 00:44:10;;;;;;;1999.90;999.90;;;18.10;99.90;;;;;;4990504;28;20454;-68
2022/05/16 00:46:35;;;;;;;1999.90;999.90;;;18.00;99.90;;;;;;4990798;28;20526;-68
2022/05/16 00:49:03;;;;;;;1999.90;999.90;;;17.90;99.90;;;;;;4990673;28;20546;-68
2022/05/16 00:51:37;;;;;;;1999.90;999.90;;;17.90;99.90;;;;;;4990739;28;20268;-68
2022/05/16 00:54:11;;;;;;;1999.90;999.90;;;17.80;99.90;;;;;;4990453;28;20407;-68
2022/05/16 00:56:37;;;;;;;1999.90;999.90;;;17.80;99.90;;;;;;4990526;28;20429;-68
2022/05/16 00:59:03;;;;;;;1999.90;999.90;;;17.70;99.90;;;;;;4990629;28;21009;-68
2022/05/16 01:07:12;;;;;;;1999.90;999.90;;;17.60;99.90;;;;;;4990400;28;20848;-68
2022/05/16 01:09:37;;;;;;;1999.90;999.90;;;17.60;99.90;;;;;;4990240;28;20408;-68
2022/05/16 01:12:04;;;;;;;1999.90;999.90;;;17.60;99.90;;;;;;4990341;28;20317;-68
2022/05/16 01:15:04;;;;;;;1999.90;999.90;;;17.60;99.90;;;;;;4990267;28;20199;-68
2022/05/16 01:17:30;;;;;;;1999.90;999.90;;;17.60;99.90;;;;;;4990113;28;20893;-68
2022/05/16 01:19:56;;;;;;;1999.90;999.90;;;17.50;99.90;;;;;;4990397;28;20497;-68
2022/05/16 01:22:32;;;;;;;1999.90;999.90;;;17.50;99.90;;;;;;4990397;28;20187;-68
2022/05/16 01:25:03;;;;;;;1999.90;999.90;;;17.50;99.90;;;;;;4990234;28;20197;-68
2022/05/16 01:27:39;;;;;;;1999.90;999.90;;;17.50;99.90;;;;;;4990005;28;20547;-68
2022/05/16 01:30:05;;;;;;;1999.90;999.90;;;17.50;99.90;;;;;;4989862;28;20411;-68
2022/05/16 01:32:31;;;;;;;1999.90;999.90;;;17.50;99.90;;;;;;4989903;28;20413;-68
2022/05/16 01:34:56;;;;;;;1999.90;999.90;;;17.40;99.90;;;;;;4989543;28;20424;-68
2022/05/16 01:38:18;;;;;;;1999.90;999.90;;;17.30;99.90;;;;;;4989773;28;20203;-68
2022/05/16 01:40:08;;;;;;;1999.90;999.90;;;17.30;99.90;;;;;;4989635;28;20264;-68
2022/05/16 01:42:34;;;;;;;1999.90;999.90;;;17.20;99.90;;;;;;4989653;28;20425;-68
2022/05/16 01:44:59;;;;;;;1999.90;999.90;;;17.20;99.90;;;;;;4989408;28;20401;-68
2022/05/16 01:47:25;;;;;;;1999.90;999.90;;;17.20;99.90;;;;;;4989625;28;20214;-68
2022/05/16 01:49:50;;;;;;;1999.90;999.90;;;17.10;99.90;;;;;;4989723;28;20164;-68
2022/05/16 01:52:16;;;;;;;1999.90;999.90;;;17.10;99.90;;;;;;4989642;28;20166;-68
2022/05/16 01:54:41;;;;;;;1999.90;999.90;;;17.00;99.90;;;;;;4989276;28;20173;-68
2022/05/16 01:57:07;;;;;;;1999.90;999.90;;;17.00;99.90;;;;;;4989452;28;20206;-68
2022/05/16 01:59:33;;;;;;;1999.90;999.90;;;16.90;99.90;;;;;;4989524;28;20187;-68
2022/05/16 02:01:58;;;;;;;1999.90;999.90;;;16.90;99.90;;;;;;4989546;28;20170;-68
2022/05/16 02:04:24;;;;;;;1999.90;999.90;;;16.90;99.90;;;;;;4989186;28;20180;-68
2022/05/16 02:06:49;;;;;;;1999.90;999.90;;;16.80;99.90;;;;;;4989325;28;20328;-69
2022/05/16 02:09:15;;;;;;;1999.90;999.90;;;16.80;99.90;;;;;;4989425;28;20170;-68
2022/05/16 02:11:41;;;;;;;1999.90;999.90;;;16.90;99.90;;;;;;4989403;28;20255;-68
2022/05/16 02:14:06;;;;;;;1999.90;999.90;;;16.90;99.90;;;;;;4989347;28;20760;-69
2022/05/16 02:16:32;;;;;;;1999.90;999.90;;;16.90;99.90;;;;;;4991499;28;20450;-69
2022/05/16 02:18:57;;;;;;;1999.90;999.90;;;16.80;99.90;;;;;;4992678;28;20178;-68
2022/05/16 02:26:59;;;;;;;1999.90;999.90;;;16.80;99.90;;;;;;4992554;28;20992;-68
2022/05/16 02:29:25;;;;;;;1999.90;999.90;;;16.70;99.90;;;;;;4992566;28;20384;-68
2022/05/16 02:31:50;;;;;;;1999.90;999.90;;;16.70;99.90;;;;;;4992536;28;20245;-68
2022/05/16 02:34:16;;;;;;;1999.90;999.90;;;16.60;99.90;;;;;;4992504;28;20642;-68
2022/05/16 02:36:42;;;;;;;1999.90;999.90;;;16.70;99.90;;;;;;4992335;28;20574;-68
2022/05/16 02:39:09;;;;;;;1999.90;999.90;;;16.60;99.90;;;;;;4992341;28;20221;-68
2022/05/16 02:41:34;;;;;;;1999.90;999.90;;;16.60;99.90;;;;;;4992403;28;20451;-68
2022/05/16 02:44:00;;;;;;;1999.90;999.90;;;16.60;99.90;;;;;;4992285;28;20420;-68
2022/05/16 02:46:25;;;;;;;1999.90;999.90;;;16.60;99.90;;;;;;4992212;28;20613;-68
2022/05/16 02:48:51;;;;;;;1999.90;999.90;;;16.60;99.90;;;;;;4992315;28;20174;-68
2022/05/16 02:51:17;;;;;;;1999.90;999.90;;;16.60;99.90;;;;;;4992252;28;20569;-68
2022/05/16 02:53:42;;;;;;;1999.90;999.90;;;16.60;99.90;;;;;;4992164;28;20234;-68
2022/05/16 02:56:08;;;;;;;1999.90;999.90;;;16.70;99.90;;;;;;4992027;28;20678;-68
2022/05/16 02:58:33;;;;;;;1999.90;999.90;;;16.60;99.90;;;;;;4992159;28;20184;-68
2022/05/16 03:00:59;;;;;;;1999.90;999.90;;;16.70;99.90;;;;;;4992067;28;20176;-68
2022/05/16 03:03:25;;;;;;;1999.90;999.90;;;16.60;99.90;;;;;;4992086;28;20521;-68
2022/05/16 03:05:50;;;;;;;1999.90;999.90;;;16.60;99.90;;;;;;4991562;28;20209;-68
2022/05/16 03:08:16;;;;;;;1999.90;999.90;;;16.60;99.90;;;;;;4991972;28;20698;-69
2022/05/16 03:10:41;;;;;;;1999.90;999.90;;;16.40;99.90;;;;;;4992017;28;20716;-68
2022/05/16 03:13:07;;;;;;;1999.90;999.90;;;16.30;99.90;;;;;;4991958;28;20208;-69
2022/05/16 03:15:32;;;;;;;1999.90;999.90;;;16.10;99.90;;;;;;4991454;28;20185;-68
2022/05/16 03:17:58;;;;;;;1999.90;999.90;;;16.00;99.90;;;;;;4991880;28;20177;-68
2022/05/16 03:20:24;;;;;;;1999.90;999.90;;;16.00;99.90;;;;;;4991820;28;20597;-68
2022/05/16 03:22:50;;;;;;;1999.90;999.90;;;16.00;99.90;;;;;;4991718;28;20169;-69
2022/05/16 03:25:16;;;;;;;1999.90;999.90;;;16.10;99.90;;;;;;4991299;28;20786;-68
2022/05/16 03:27:41;;;;;;;1999.90;999.90;;;16.10;99.90;;;;;;4990599;28;20167;-68
2022/05/16 03:30:09;;;;;;;1999.90;999.90;;;16.10;99.90;;;;;;4991685;28;20546;-68
2022/05/16 03:32:35;;;;;;;1999.90;999.90;;;16.10;99.90;;;;;;4991574;28;20245;-68
2022/05/16 03:35:01;;;;;;;1999.90;999.90;;;16.10;99.90;;;;;;4991299;28;20411;-68
2022/05/16 03:37:26;;;;;;;1999.90;999.90;;;16.10;99.90;;;;;;4991502;28;20531;-68
2022/05/16 03:42:36;;;;;;;1999.90;999.90;;;16.20;99.90;;;;;;4991875;28;20209;-68
2022/05/16 03:45:04;;;;;;;1999.90;999.90;;;16.30;99.90;;;;;;4991176;28;20417;-68
2022/05/16 03:47:30;;;;;;;1999.90;999.90;;;16.30;99.90;;;;;;4991181;28;20212;-68
2022/05/16 03:49:55;;;;;;;1999.90;999.90;;;16.20;99.90;;;;;;4991364;28;20506;-68
2022/05/16 03:52:21;;;;;;;1999.90;999.90;;;16.20;99.90;;;;;;4991354;28;20178;-68
2022/05/16 03:54:47;;;;;;;1999.90;999.90;;;16.30;99.90;;;;;;4991013;28;20165;-68
2022/05/16 03:57:12;;;;;;;1999.90;999.90;;;16.40;99.90;;;;;;4991260;28;20191;-69
2022/05/16 03:59:38;;;;;;;1999.90;999.90;;;16.40;99.90;;;;;;4991289;28;20174;-69
2022/05/16 04:02:05;;;;;;;1999.90;999.90;;;16.50;99.90;;;;;;4991190;28;20168;-68
2022/05/16 04:04:31;;;;;;;1999.90;999.90;;;16.40;99.90;;;;;;4991133;28;20177;-68
2022/05/16 04:06:57;;;;;;;1999.90;999.90;;;16.50;99.90;;;;;;4990924;28;20451;-68
2022/05/16 04:09:23;;;;;;;1999.90;999.90;;;16.50;99.90;;;;;;4991090;28;20412;-68
2022/05/16 04:11:48;;;;;;;1999.90;999.90;;;16.50;99.90;;;;;;4991033;28;20166;-68
2022/05/16 04:14:14;;;;;;;1999.90;999.90;;;16.40;99.90;;;;;;4990743;28;20208;-68
2022/05/16 04:16:39;;;;;;;1999.90;999.90;;;16.50;99.90;;;;;;4990780;28;20209;-68
2022/05/16 04:19:09;;;;;;;1999.90;999.90;;;16.60;99.90;;;;;;4990974;28;20176;-68
2022/05/16 04:21:37;;;;;;;1999.90;999.90;;;16.70;99.90;;;;;;4991026;28;20220;-69
2022/05/16 04:24:05;;;;;;;1999.90;999.90;;;16.80;99.90;;;;;;4990629;28;20413;-69
2022/05/16 04:26:31;;;;;;;1999.90;999.90;;;16.90;99.90;;;;;;4990772;28;20489;-68
2022/05/16 04:28:57;;;;;;;1999.90;999.90;;;16.90;99.90;;;;;;4990828;28;20906;-69
2022/05/16 04:31:23;;;;;;;1999.90;999.90;;;17.00;99.90;;;;;;4990702;28;20434;-69
2022/05/16 04:33:49;;;;;;;1999.90;999.90;;;17.10;99.90;;;;;;4990666;28;20405;-68
2022/05/16 04:36:14;;;;;;;1999.90;999.90;;;17.20;99.90;;;;;;4990333;28;20500;-68
2022/05/16 04:38:40;;;;;;;1999.90;999.90;;;17.30;99.90;;;;;;4990331;28;20667;-68
2022/05/16 04:43:51;;;;;;;1999.90;999.90;;;17.50;99.90;;;;;;4990538;28;20201;-68
2022/05/16 04:46:16;;;;;;;1999.90;999.90;;;17.50;99.90;;;;;;4990331;28;21029;-69
2022/05/16 04:48:43;;;;;;;1999.90;999.90;;;17.60;99.90;;;;;;4990514;28;20176;-68
2022/05/16 04:51:10;;;;;;;1999.90;999.90;;;17.70;99.90;;;;;;4990372;28;20180;-69
2022/05/16 04:53:35;;;;;;;1999.90;999.90;;;17.70;99.90;;;;;;4990430;28;20410;-68
2022/05/16 04:56:01;;;;;;;1999.90;999.90;;;17.70;99.90;;;;;;4990047;28;20430;-68
2022/05/16 04:58:27;;;;;;;1999.90;999.90;;;17.80;99.90;;;;;;4990353;28;20179;-68
2022/05/16 05:00:53;;;;;;;1999.90;999.90;;;17.90;99.90;;;;;;4990557;28;20201;-68
2022/05/16 05:03:19;;;;;;;1999.90;999.90;;;18.00;99.90;;;;;;4990311;28;20780;-68
2022/05/16 05:05:45;;;;;;;1999.90;999.90;;;18.00;99.90;;;;;;4990012;28;20216;-69
2022/05/16 05:08:10;;;;;;;1999.90;999.90;;;18.10;99.90;;;;;;4990273;28;20185;-68
2022/05/16 05:16:10;;;;;;;1999.90;999.90;;;18.30;99.90;;;;;;4989874;28;20537;-68
2022/05/16 05:18:38;;;;;;;1999.90;999.90;;;18.40;99.90;;;;;;4990057;28;20436;-69
2022/05/16 05:21:03;;;;;;;1999.90;999.90;;;18.40;99.90;;;;;;4989999;28;20415;-69
2022/05/16 05:23:29;;;;;;;1999.90;999.90;;;18.40;99.90;;;;;;4989969;28;20399;-69
2022/05/16 05:25:57;;;;;;;1999.90;999.90;;;18.40;99.90;;;;;;4989512;28;20288;-69
2022/05/16 05:28:23;;;;;;;1999.90;999.90;;;18.40;99.90;;;;;;4990097;28;20179;-69
2022/05/16 05:30:48;;;;;;;1999.90;999.90;;;18.40;99.90;;;;;;4989896;28;20964;-69
2022/05/16 05:33:14;;;;;;;1999.90;999.90;;;18.40;99.90;;;;;;4989843;28;20427;-68
2022/05/16 05:35:40;;;;;;;1999.90;999.90;;;18.50;99.90;;;;;;4989443;28;20195;-69
2022/05/16 05:38:05;;;;;;;1999.90;999.90;;;18.50;99.90;;;;;;4990020;28;20267;-68
2022/05/16 05:40:31;;;;;;;1999.90;999.90;;;18.50;99.90;;;;;;4989803;28;20913;-69
2022/05/16 05:43:03;;;;;;;1999.90;999.90;;;18.50;99.90;;;;;;4989739;28;20184;-68
2022/05/16 05:45:29;;;;;;;1999.90;999.90;;;18.50;99.90;;;;;;4989486;28;20182;-68
2022/05/16 05:47:54;;;;;;;1999.90;999.90;;;18.50;99.90;;;;;;4989758;28;20912;-69
2022/05/16 05:50:20;;;;;;;1999.90;999.90;;;18.50;99.90;;;;;;4990193;28;20642;-69
2022/05/16 05:52:46;;;;;;;1999.90;999.90;;;18.60;99.90;;;;;;4993235;28;20249;-68
2022/05/16 05:55:11;;;;;;;1999.90;999.90;;;18.70;99.90;;;;;;4993021;28;20179;-69
2022/05/16 05:57:37;;;;;;;1999.90;999.90;;;18.70;99.90;;;;;;4993186;28;20751;-68
2022/05/16 06:00:05;;;;;;;1999.90;999.90;;;18.80;99.90;;;;;;4993004;28;20282;-69
2022/05/16 06:02:31;;;;;;;1999.90;999.90;;;18.80;99.90;;;;;;4993078;28;20569;-68
2022/05/16 06:04:57;;;;;;;1999.90;999.90;;;18.90;99.90;;;;;;4992685;28;20427;-69
2022/05/16 06:07:23;;;;;;;1999.90;999.90;;;19.00;99.90;;;;;;4992957;28;20303;-69
2022/05/16 06:09:48;;;;;;;1999.90;999.90;;;19.00;99.90;;;;;;4993108;28;20180;-69
2022/05/16 06:12:14;;;;;;;1999.90;999.90;;;19.10;99.90;;;;;;4992936;28;20417;-69
2022/05/16 06:14:43;;;;;;;1999.90;999.90;;;19.30;99.90;;;;;;4992778;28;20668;-69
2022/05/16 06:17:09;;;;;;;1999.90;999.90;;;19.40;99.90;;;;;;4992620;28;20259;-69
2022/05/16 06:19:36;;;;;;;1999.90;999.90;;;19.40;99.90;;;;;;4992714;28;20417;-69
2022/05/16 06:22:02;;;;;;;1999.90;999.90;;;19.50;99.90;;;;;;4992934;28;20417;-69
2022/05/16 06:27:13;;;;;;;1999.90;999.90;;;19.70;99.90;;;;;;4993037;28;20487;-68
2022/05/16 06:29:39;;;;;;;1999.90;999.90;;;19.80;99.90;;;;;;4992645;28;20390;-69
2022/05/16 06:32:05;;;;;;;1999.90;999.90;;;20.00;99.90;;;;;;4992553;28;20811;-69
2022/05/16 06:34:31;;;;;;;1999.90;999.90;;;20.10;99.90;;;;;;4992401;28;20413;-68
2022/05/16 06:36:56;;;;;;;1999.90;999.90;;;20.20;99.90;;;;;;4992372;28;20410;-69
2022/05/16 06:39:22;;;;;;;1999.90;999.90;;;20.30;99.90;;;;;;4992513;28;20184;-69
2022/05/16 06:41:49;;;;;;;1999.90;999.90;;;20.40;99.90;;;;;;4992465;28;20193;-69
2022/05/16 06:44:15;;;;;;;1999.90;999.90;;;20.40;99.90;;;;;;4992215;28;20189;-69
2022/05/16 06:46:44;;;;;;;1999.90;999.90;;;20.40;99.90;;;;;;4992181;28;20857;-69
2022/05/16 06:49:10;;;;;;;1999.90;999.90;;;20.40;99.90;;;;;;4986030;28;20422;-69
2022/05/16 06:51:36;;;;;;;1999.90;999.90;;;20.40;99.90;;;;;;4956026;28;20519;-69
2022/05/16 06:54:03;;;;;;;1999.90;999.90;;;20.40;99.90;;;;;;4953252;29;20869;-69
2022/05/16 06:56:29;;;;;;;1999.90;999.90;;;20.40;99.90;;;;;;4955935;28;20421;-69
2022/05/16 06:58:54;;;;;;;1999.90;999.90;;;20.50;99.90;;;;;;4953555;29;20391;-69
2022/05/16 07:01:20;;;;;;;1999.90;999.90;;;20.60;99.90;;;;;;4953298;29;20233;-69
2022/05/16 07:03:46;;;;;;;1999.90;999.90;;;20.60;99.90;;;;;;4953531;29;20654;-69
2022/05/16 07:06:14;;;;;;;1999.90;999.90;;;20.70;99.90;;;;;;4952983;29;20623;-69
2022/05/16 07:08:41;;;;;;;1999.90;999.90;;;20.70;99.90;;;;;;4953446;29;20187;-68
2022/05/16 07:11:08;;;;;;;1999.90;999.90;;;20.90;99.90;;;;;;4953285;29;20471;-68
2022/05/16 07:13:35;;;;;;;1999.90;999.90;;;20.90;99.90;;;;;;4953402;28;20449;-69
2022/05/16 07:16:01;;;;;;;1999.90;999.90;;;21.00;99.90;;;;;;4952778;29;20509;-69
2022/05/16 07:18:27;;;;;;;1999.90;999.90;;;21.20;99.90;;;;;;4953225;29;20183;-69
2022/05/16 07:20:55;;;;;;;1999.90;999.90;;;21.20;99.90;;;;;;4953160;29;20899;-68
2022/05/16 07:23:21;;;;;;;1999.90;999.90;;;21.20;99.90;;;;;;4953164;29;20413;-69
2022/05/16 07:28:31;;;;;;;1999.90;999.90;;;21.40;99.90;;;;;;4953534;29;20946;-69
2022/05/16 07:30:57;;;;;;;1999.90;999.90;;;21.50;99.90;;;;;;4953562;29;20424;-69
2022/05/16 07:33:23;;;;;;;1999.90;999.90;;;21.50;99.90;;;;;;4953429;28;20189;-68
2022/05/16 07:35:50;;;;;;;1999.90;999.90;;;21.70;99.90;;;;;;4953000;29;20407;-69
2022/05/16 07:38:20;;;;;;;1999.90;999.90;;;21.80;99.90;;;;;;4953179;28;20190;-69
2022/05/16 07:40:46;;;;;;;1999.90;999.90;;;21.90;99.90;;;;;;4953497;29;20418;-69
2022/05/16 07:43:11;;;;;;;1999.90;999.90;;;22.00;99.90;;;;;;4953303;29;20403;-69
2022/05/16 07:45:37;;;;;;;1999.90;999.90;;;22.00;99.90;;;;;;4953167;29;20407;-69
2022/05/16 07:48:03;;;;;;;1999.90;999.90;;;22.20;99.90;;;;;;4953486;29;20865;-69
2022/05/16 07:50:41;;;;;;;1999.90;999.90;;;22.20;99.90;;;;;;4953537;29;20397;-69
2022/05/16 07:53:14;;;;;;;1999.90;999.90;;;22.20;99.90;;;;;;4953347;29;20180;-69
2022/05/16 07:55:42;;;;;;;1999.90;999.90;;;22.30;99.90;;;;;;4953236;29;20513;-68
2022/05/16 07:58:08;;;;;;;1999.90;999.90;;;22.30;99.90;;;;;;4967148;28;20401;-68
2022/05/16 08:00:34;;;;;;;1999.90;999.90;;;22.40;99.90;;;;;;4971156;28;20478;-68
2022/05/16 08:03:01;;;;;;;1999.90;999.90;;;22.50;99.90;;;;;;4971673;28;20182;-68
2022/05/16 08:05:27;;;;;;;1999.90;999.90;;;22.70;99.90;;;;;;4970888;28;20261;-68
2022/05/16 08:10:39;;;;;;;1999.90;999.90;;;23.10;99.90;;;;;;4971726;28;20658;-68
2022/05/16 08:13:10;;;;;;;1999.90;999.90;;;23.20;99.90;;;;;;4970535;28;20410;-68
2022/05/16 08:15:38;;;;;;;1999.90;999.90;;;23.20;99.90;;;;;;4970756;28;20808;-68
2022/05/16 08:18:05;;;;;;;1999.90;999.90;;;23.10;99.90;;;;;;4970638;28;20415;-68
2022/05/16 08:20:32;;;;;;;1999.90;999.90;;;23.20;99.90;;;;;;4974611;28;20392;-69
2022/05/16 08:22:58;;;;;;;1999.90;999.90;;;23.20;99.90;;;;;;4970294;28;20399;-68
2022/05/16 08:25:24;;;;;;;1999.90;999.90;;;23.10;99.90;;;;;;4959987;28;20416;-69
2022/05/16 08:27:52;;;;;;;1999.90;999.90;;;23.10;99.90;;;;;;4970046;28;20534;-69
2022/05/16 08:30:20;;;;;;;1999.90;999.90;;;23.00;99.90;;;;;;4966365;28;20182;-70
2022/05/16 08:32:46;;;;;;;1999.90;999.90;;;23.10;99.90;;;;;;4969391;28;20446;-69
2022/05/16 08:35:13;;;;;;;1999.90;999.90;;;23.20;99.90;;;;;;4969518;28;20392;-69
2022/05/16 08:41:02;;;;;;;1999.90;999.90;;;23.40;99.90;;;;;;4969704;28;20426;-68
2022/05/16 08:43:58;;;;;;;1999.90;999.90;;;23.60;99.90;;;;;;4985334;28;20426;-69
2022/05/16 08:46:58;;;;;;;1999.90;999.90;;;23.70;99.90;;;;;;4949858;29;20469;-69
2022/05/16 08:49:36;;;;;;;1999.90;999.90;;;23.70;99.90;;;;;;4914438;29;20430;-69
2022/05/16 08:52:10;;;;;;;1999.90;999.90;;;23.70;99.90;;;;;;4950502;29;20396;-69
2022/05/16 08:54:48;;;;;;;1999.90;999.90;;;23.60;99.90;;;;;;4949315;29;20489;-69
2022/05/16 08:57:23;;;;;;;1999.90;999.90;;;23.60;99.90;;;;;;4950198;29;20445;-71
2022/05/16 08:59:56;;;;;;;1999.90;999.90;;;23.70;99.90;;;;;;4963605;28;20413;-68
2022/05/16 09:02:24;;;;;;;1999.90;999.90;;;23.80;99.90;;;;;;4969590;28;20417;-69
2022/05/16 09:04:57;;;;;;;1999.90;999.90;;;24.00;99.90;;;;;;4968953;28;20501;-67
2022/05/16 09:07:45;;;;;;;1999.90;999.90;;;24.10;99.90;;;;;;4969062;28;20465;-69
2022/05/16 09:10:16;;;;;;;1999.90;999.90;;;24.20;99.90;;;;;;4968930;28;20413;-69
2022/05/16 09:12:47;;;;;;;1999.90;999.90;;;24.40;99.90;;;;;;4969367;28;20389;-68
2022/05/16 09:15:46;;;;;;;1999.90;999.90;;;24.50;99.90;;;;;;4968030;28;20429;-68
2022/05/16 09:18:56;;;;;;;1999.90;999.90;;;24.70;99.90;;;;;;4954851;28;20434;-68
2022/05/16 09:21:52;;;;;;;1999.90;999.90;;;24.90;99.90;;;;;;4960118;28;20472;-68
2022/05/16 09:24:35;;;;;;;1999.90;999.90;;;25.10;99.90;;;;;;4967859;28;20373;-68
2022/05/16 09:27:04;;;;;;;1999.90;999.90;;;25.10;99.90;;;;;;4968692;28;20502;-68
2022/05/16 09:29:35;;;;;;;1999.90;999.90;;;25.30;99.90;;;;;;4966730;28;20385;-66
2022/05/16 09:32:38;;;;;;;1999.90;999.90;;;25.40;99.90;;;;;;4968349;28;20400;-67
2022/05/16 09:35:12;;;;;;;1999.90;999.90;;;25.50;99.90;;;;;;4964456;28;20430;-68
2022/05/16 09:37:38;;;;;;;1999.90;999.90;;;25.70;99.90;;;;;;4968717;28;20440;-69
2022/05/16 09:40:04;;;;;;;1999.90;999.90;;;25.90;99.90;;;;;;4968325;28;20869;-68
2022/05/16 09:42:35;;;;;;;1999.90;999.90;;;26.10;99.90;;;;;;4967404;28;20239;-68
2022/05/16 09:45:04;;;;;;;1999.90;999.90;;;26.10;99.90;;;;;;4968096;28;20380;-67
2022/05/16 09:47:34;;;;;;;1999.90;999.90;;;26.30;99.90;;;;;;4967582;28;20523;-68
2022/05/16 09:50:02;;;;;;;1999.90;999.90;;;26.50;99.90;;;;;;4968654;28;20437;-67
2022/05/16 09:52:30;;;;;;;1999.90;999.90;;;26.70;99.90;;;;;;4968310;28;20387;-68
2022/05/16 09:55:00;;;;;;;1999.90;999.90;;;26.70;99.90;;;;;;4967975;28;20402;-68
2022/05/16 09:57:26;;;;;;;1999.90;999.90;;;26.80;99.90;;;;;;4968449;28;20429;-68
2022/05/16 09:59:55;;;;;;;1999.90;999.90;;;27.10;99.90;;;;;;4968985;28;20464;-68
2022/05/16 10:02:31;;;;;;;1999.90;999.90;;;27.30;99.90;;;;;;4968432;28;20417;-68
2022/05/16 10:05:00;;;;;;;1999.90;999.90;;;27.40;99.90;;;;;;4968168;28;20408;-68
2022/05/16 10:07:39;;;;;;;1999.90;999.90;;;27.70;99.90;;;;;;4968366;28;20456;-68
2022/05/16 10:10:05;;;;;;;1999.90;999.90;;;28.00;99.90;;;;;;4968097;28;20401;-68
2022/05/16 10:12:32;;;;;;;1999.90;999.90;;;28.20;99.90;;;;;;4968096;28;20402;-68
2022/05/16 10:14:59;;;;;;;1999.90;999.90;;;28.50;99.70;;;;;;4967488;28;20170;-68
2022/05/16 10:17:31;;;;;;;1999.90;999.90;;;28.80;99.80;;;;;;4966926;28;20481;-67
2022/05/16 10:20:03;;;;;;;1999.90;999.90;;;29.00;97.60;;;;;;4967995;28;20406;-67
2022/05/16 10:22:31;;;;;;;1999.90;999.90;;;29.30;94.30;;;;;;4967727;28;20441;-67
2022/05/16 10:24:59;;;;;;;1999.90;999.90;;;29.50;93.90;;;;;;4967241;28;20425;-67
2022/05/16 10:27:36;;;;;;;1999.90;999.90;;;29.60;92.20;;;;;;4964851;28;20489;-67
2022/05/16 10:30:10;;;;;;;1999.90;999.90;;;29.40;86.40;;;;;;4957011;28;20410;-68
2022/05/16 10:35:29;;;;;;;1999.90;999.90;;;28.70;85.50;;;;;;4967095;28;20769;-67
2022/05/16 10:38:02;;;;;;;1999.90;999.90;;;28.60;84.30;;;;;;4970509;28;20463;-67
2022/05/16 10:40:29;;;;;;;1999.90;999.90;;;28.60;87.00;;;;;;4967108;28;21033;-67
2022/05/16 10:43:01;;;;;;;1999.90;999.90;;;28.60;90.20;;;;;;4970615;28;20446;-67
2022/05/16 10:45:29;;;;;;;1999.90;999.90;;;28.10;89.70;;;;;;4970278;28;20416;-67
2022/05/16 10:48:08;;;;;;;1999.90;999.90;;;27.60;90.30;;;;;;4970908;28;20456;-68
2022/05/16 10:50:38;;;;;;;1999.90;999.90;;;27.50;90.80;;;;;;4971115;28;20958;-67
2022/05/16 10:53:19;;;;;;;1999.90;999.90;;;27.30;93.10;;;;;;4970001;28;20907;-68
2022/05/16 10:55:58;;;;;;;1999.90;999.90;;;27.20;92.40;;;;;;4970239;28;20434;-67
2022/05/16 10:58:47;;;;;;;1999.90;999.90;;;27.10;91.90;;;;;;4969840;28;20409;-67
2022/05/16 11:01:21;;;;;;;1999.90;999.90;;;27.10;91.60;;;;;;4959707;28;20791;-67
2022/05/16 11:04:23;;;;;;;1999.90;999.90;;;27.20;91.60;;;;;;4971126;28;20406;-67
2022/05/16 11:07:07;;;;;;;1999.90;999.90;;;27.40;93.50;;;;;;4971593;28;21050;-67
2022/05/16 11:09:50;;;;;;;1999.90;999.90;;;27.20;92.80;;;;;;4971223;28;20887;-67
2022/05/16 11:12:29;;;;;;;1999.90;999.90;;;27.00;96.50;;;;;;4971515;28;20412;-67
2022/05/16 11:14:57;;;;;;;1999.90;999.90;;;26.90;97.40;;;;;;4970097;28;20918;-67
2022/05/16 11:17:29;;;;;;;1999.90;999.90;;;26.70;99.90;;;;;;4971259;28;20453;-67
2022/05/16 11:20:10;;;;;;;1999.90;999.90;;;26.50;99.90;;;;;;4971193;28;20402;-67
2022/05/16 11:22:39;;;;;;;1999.90;999.90;;;26.30;99.90;;;;;;4970921;28;20769;-67
2022/05/16 11:25:20;;;;;;;1999.90;999.90;;;25.90;99.90;;;;;;4970275;28;20406;-67
2022/05/16 11:28:10;;;;;;;1999.90;999.90;;;25.70;99.90;;;;;;4971369;28;20896;-67
2022/05/16 11:30:54;;;;;;;1999.90;999.90;;;25.70;99.90;;;;;;4970851;28;20428;-67
2022/05/16 11:33:47;;;;;;;1999.90;999.90;;;25.60;99.90;;;;;;4971774;28;20806;-67
2022/05/16 11:36:50;;;;;;;1999.90;999.90;;;25.60;99.90;;;;;;4970151;28;20495;-67
2022/05/16 11:39:30;;;;;;;1999.90;999.90;;;25.60;99.90;;;;;;4971046;28;20406;-67
2022/05/16 11:42:05;;;;;;;1999.90;999.90;;;25.60;99.90;;;;;;4971096;28;20422;-67
2022/05/16 11:44:33;;;;;;;1999.90;999.90;;;25.80;99.90;;;;;;4969373;28;20415;-67
2022/05/16 11:47:29;;;;;;;1999.90;999.90;;;25.90;99.90;;;;;;4970950;28;20844;-67
2022/05/16 11:50:07;;;;;;;1999.90;999.90;;;25.90;99.90;;;;;;4970244;28;20424;-67
2022/05/16 11:52:51;;;;;;;1999.90;999.90;;;26.00;99.90;;;;;;4970454;28;20410;-67
2022/05/16 12:01:03;;;;;;;1999.90;999.90;;;25.40;99.90;;;;;;4970686;28;20957;-67
2022/05/16 12:04:13;;;;;;;1999.90;999.90;;;25.40;99.90;;;;;;4970643;28;20418;-67
2022/05/16 12:06:48;;;;;;;1999.90;999.90;;;25.30;99.90;;;;;;4949771;28;20508;-67
2022/05/16 12:09:16;;;;;;;1999.90;999.90;;;25.30;99.90;;;;;;4970520;28;20930;-67
2022/05/16 12:12:04;;;;;;;1999.90;999.90;;;25.50;99.90;;;;;;4970263;28;20406;-67
2022/05/16 12:14:32;;;;;;;1999.90;999.90;;;25.70;99.90;;;;;;4952583;28;20414;-67
2022/05/16 12:16:58;;;;;;;1999.90;999.90;;;25.80;99.90;;;;;;4970115;28;20449;-67
2022/05/16 12:19:26;;;;;;;1999.90;999.90;;;26.10;99.90;;;;;;4970362;28;20930;-66
2022/05/16 12:21:58;;;;;;;1999.90;999.90;;;26.20;99.90;;;;;;4961983;28;20183;-66
2022/05/16 12:24:30;;;;;;;1999.90;999.90;;;26.30;99.90;;;;;;4961630;28;20429;-68
2022/05/16 12:27:04;;;;;;;1999.90;999.90;;;26.50;99.90;;;;;;4960342;28;20828;-68
2022/05/16 12:29:39;;;;;;;1999.90;999.90;;;26.50;99.90;;;;;;4966605;28;20802;-67
2022/05/16 12:32:04;;;;;;;1999.90;999.90;;;26.30;99.90;;;;;;4970338;28;20416;-68
2022/05/16 12:34:33;;;;;;;1999.90;999.90;;;26.80;99.90;;;;;;4967092;28;20937;-67
2022/05/16 12:37:06;;;;;;;1999.90;999.90;;;26.90;99.90;;;;;;4969323;28;20206;-68
2022/05/16 12:40:05;;;;;;;1999.90;999.90;;;26.50;99.90;;;;;;4969904;28;20782;-68
2022/05/16 12:42:50;;;;;;;1999.90;999.90;;;25.90;99.90;;;;;;4951201;29;21140;-69
2022/05/16 12:45:46;;;;;;;1999.90;999.90;;;25.40;99.90;;;;;;4949925;29;20410;-68
2022/05/16 12:48:23;;;;;;;1999.90;999.90;;;25.00;99.90;;;;;;4949467;29;20395;-68
2022/05/16 12:51:10;;;;;;;1999.90;999.90;;;24.80;99.90;;;;;;4949697;29;20856;-67
2022/05/16 12:53:48;;;;;;;1999.90;999.90;;;24.70;99.90;;;;;;4949869;29;20402;-67